sensor_id;sensor_type;location;lat;lon;timestamp;P1;durP1;ratioP1;P2;durP2;ratioP2
23242;SDS011;11790;49.578;11.214;2023-10-13T00:03:08;14.15;;;9.55;;
23242;SDS011;11790;49.578;11.214;2023-10-13T00:08:14;18.63;;;11.77;;
23242;SDS011;11790;49.578;11.214;2023-10-13T00:13:15;15.88;;;9.57;;
23242;SDS011;11790;49.578;11.214;2023-10-13T00:18:19;14.75;;;9.70;;
23242;SDS011;11790;49.578;11.214;2023-10-13T00:23:19;16.13;;;9.82;;
23242;SDS011;11790;49.578;11.214;2023-10-13T00:28:23;15.52;;;10.35;;
23242;SDS011;11790;49.578;11.214;2023-10-13T00:33:24;20.58;;;10.63;;
23242;SDS011;11790;49.578;11.214;2023-10-13T00:38:25;17.42;;;10.77;;
23242;SDS011;11790;49.578;11.214;2023-10-13T00:43:27;14.80;;;10.35;;
23242;SDS011;11790;49.578;11.214;2023-10-13T00:48:28;23.35;;;10.02;;
23242;SDS011;11790;49.578;11.214;2023-10-13T00:53:35;16.70;;;9.85;;
23242;SDS011;11790;49.578;11.214;2023-10-13T00:58:39;16.60;;;10.85;;
23242;SDS011;11790;49.578;11.214;2023-10-13T01:03:40;17.23;;;10.68;;
23242;SDS011;11790;49.578;11.214;2023-10-13T01:08:40;15.40;;;10.77;;
23242;SDS011;11790;49.578;11.214;2023-10-13T01:13:44;16.52;;;10.02;;
23242;SDS011;11790;49.578;11.214;2023-10-13T01:18:44;18.38;;;10.73;;
23242;SDS011;11790;49.578;11.214;2023-10-13T01:23:48;16.98;;;10.38;;
23242;SDS011;11790;49.578;11.214;2023-10-13T01:28:50;22.48;;;10.93;;
23242;SDS011;11790;49.578;11.214;2023-10-13T01:33:51;18.30;;;10.52;;
23242;SDS011;11790;49.578;11.214;2023-10-13T01:38:54;16.90;;;10.98;;
23242;SDS011;11790;49.578;11.214;2023-10-13T01:43:54;18.15;;;11.35;;
23242;SDS011;11790;49.578;11.214;2023-10-13T01:48:57;16.27;;;10.15;;
23242;SDS011;11790;49.578;11.214;2023-10-13T01:53:57;17.98;;;10.60;;
23242;SDS011;11790;49.578;11.214;2023-10-13T01:58:57;17.30;;;10.65;;
23242;SDS011;11790;49.578;11.214;2023-10-13T02:03:58;16.38;;;10.20;;
23242;SDS011;11790;49.578;11.214;2023-10-13T02:09:07;20.10;;;11.00;;
23242;SDS011;11790;49.578;11.214;2023-10-13T02:14:13;16.40;;;10.82;;
23242;SDS011;11790;49.578;11.214;2023-10-13T02:19:16;22.35;;;11.38;;
23242;SDS011;11790;49.578;11.214;2023-10-13T02:24:19;13.65;;;9.35;;
23242;SDS011;11790;49.578;11.214;2023-10-13T02:29:20;17.02;;;9.88;;
23242;SDS011;11790;49.578;11.214;2023-10-13T02:34:21;17.13;;;10.25;;
23242;SDS011;11790;49.578;11.214;2023-10-13T02:39:23;16.73;;;10.32;;
23242;SDS011;11790;49.578;11.214;2023-10-13T02:44:27;12.23;;;9.55;;
23242;SDS011;11790;49.578;11.214;2023-10-13T02:49:29;19.38;;;10.85;;
23242;SDS011;11790;49.578;11.214;2023-10-13T02:54:34;13.53;;;10.20;;
23242;SDS011;11790;49.578;11.214;2023-10-13T02:59:39;19.57;;;10.50;;
23242;SDS011;11790;49.578;11.214;2023-10-13T03:04:57;17.42;;;10.73;;
23242;SDS011;11790;49.578;11.214;2023-10-13T03:10:10;19.02;;;10.13;;
23242;SDS011;11790;49.578;11.214;2023-10-13T03:15:10;17.77;;;10.23;;
23242;SDS011;11790;49.578;11.214;2023-10-13T03:20:21;16.85;;;10.73;;
23242;SDS011;11790;49.578;11.214;2023-10-13T03:25:30;15.30;;;10.27;;
23242;SDS011;11790;49.578;11.214;2023-10-13T03:35:43;17.85;;;9.98;;
23242;SDS011;11790;49.578;11.214;2023-10-13T03:40:48;19.83;;;11.07;;
23242;SDS011;11790;49.578;11.214;2023-10-13T03:45:49;18.20;;;10.15;;
23242;SDS011;11790;49.578;11.214;2023-10-13T03:50:54;15.95;;;10.77;;
23242;SDS011;11790;49.578;11.214;2023-10-13T03:56:06;20.63;;;11.25;;
23242;SDS011;11790;49.578;11.214;2023-10-13T04:01:18;17.92;;;10.80;;
23242;SDS011;11790;49.578;11.214;2023-10-13T04:06:18;14.48;;;9.45;;
23242;SDS011;11790;49.578;11.214;2023-10-13T04:11:38;18.85;;;11.10;;
23242;SDS011;11790;49.578;11.214;2023-10-13T04:16:59;14.38;;;10.32;;
23242;SDS011;11790;49.578;11.214;2023-10-13T04:21:59;20.45;;;11.23;;
23242;SDS011;11790;49.578;11.214;2023-10-13T04:27:00;20.30;;;10.48;;
23242;SDS011;11790;49.578;11.214;2023-10-13T04:32:27;16.80;;;10.15;;
23242;SDS011;11790;49.578;11.214;2023-10-13T04:37:38;16.70;;;10.90;;
23242;SDS011;11790;49.578;11.214;2023-10-13T04:42:52;18.35;;;10.27;;
23242;SDS011;11790;49.578;11.214;2023-10-13T04:48:04;16.25;;;10.50;;
23242;SDS011;11790;49.578;11.214;2023-10-13T04:53:17;19.23;;;10.73;;
23242;SDS011;11790;49.578;11.214;2023-10-13T04:58:30;16.38;;;10.23;;
23242;SDS011;11790;49.578;11.214;2023-10-13T05:03:33;17.50;;;10.43;;
23242;SDS011;11790;49.578;11.214;2023-10-13T05:08:52;18.52;;;10.27;;
23242;SDS011;11790;49.578;11.214;2023-10-13T05:14:11;16.77;;;10.10;;
23242;SDS011;11790;49.578;11.214;2023-10-13T05:19:29;16.75;;;9.95;;
23242;SDS011;11790;49.578;11.214;2023-10-13T05:24:48;17.67;;;10.10;;
23242;SDS011;11790;49.578;11.214;2023-10-13T05:30:07;19.85;;;10.45;;
23242;SDS011;11790;49.578;11.214;2023-10-13T05:35:26;16.08;;;9.35;;
23242;SDS011;11790;49.578;11.214;2023-10-13T05:40:58;23.60;;;10.50;;
23242;SDS011;11790;49.578;11.214;2023-10-13T05:46:17;17.25;;;9.82;;
23242;SDS011;11790;49.578;11.214;2023-10-13T05:51:26;17.80;;;9.80;;
23242;SDS011;11790;49.578;11.214;2023-10-13T05:56:35;13.80;;;9.43;;
23242;SDS011;11790;49.578;11.214;2023-10-13T06:01:54;14.48;;;9.13;;
23242;SDS011;11790;49.578;11.214;2023-10-13T06:07:13;13.25;;;8.50;;
23242;SDS011;11790;49.578;11.214;2023-10-13T06:12:31;11.77;;;8.00;;
23242;SDS011;11790;49.578;11.214;2023-10-13T06:17:50;12.02;;;8.10;;
23242;SDS011;11790;49.578;11.214;2023-10-13T06:23:09;17.38;;;7.80;;
23242;SDS011;11790;49.578;11.214;2023-10-13T06:28:28;14.68;;;8.15;;
23242;SDS011;11790;49.578;11.214;2023-10-13T06:33:40;12.57;;;8.15;;
23242;SDS011;11790;49.578;11.214;2023-10-13T06:38:47;13.13;;;7.68;;
23242;SDS011;11790;49.578;11.214;2023-10-13T06:43:55;9.70;;;7.65;;
23242;SDS011;11790;49.578;11.214;2023-10-13T06:48:59;13.60;;;7.72;;
23242;SDS011;11790;49.578;11.214;2023-10-13T06:54:00;14.63;;;7.30;;
23242;SDS011;11790;49.578;11.214;2023-10-13T06:59:00;11.32;;;6.68;;
23242;SDS011;11790;49.578;11.214;2023-10-13T07:04:07;13.75;;;6.60;;
23242;SDS011;11790;49.578;11.214;2023-10-13T07:09:14;12.68;;;6.50;;
23242;SDS011;11790;49.578;11.214;2023-10-13T07:14:33;8.82;;;6.05;;
23242;SDS011;11790;49.578;11.214;2023-10-13T07:19:33;8.98;;;5.53;;
23242;SDS011;11790;49.578;11.214;2023-10-13T07:24:34;9.80;;;5.75;;
23242;SDS011;11790;49.578;11.214;2023-10-13T07:29:39;11.52;;;5.65;;
23242;SDS011;11790;49.578;11.214;2023-10-13T07:34:42;13.07;;;4.82;;
23242;SDS011;11790;49.578;11.214;2023-10-13T07:39:42;8.75;;;5.25;;
23242;SDS011;11790;49.578;11.214;2023-10-13T07:44:42;8.60;;;4.75;;
23242;SDS011;11790;49.578;11.214;2023-10-13T07:49:46;7.82;;;4.40;;
23242;SDS011;11790;49.578;11.214;2023-10-13T07:54:50;8.48;;;4.25;;
23242;SDS011;11790;49.578;11.214;2023-10-13T08:00:11;8.50;;;4.05;;
23242;SDS011;11790;49.578;11.214;2023-10-13T08:05:12;6.82;;;3.75;;
23242;SDS011;11790;49.578;11.214;2023-10-13T08:10:15;10.23;;;4.10;;
23242;SDS011;11790;49.578;11.214;2023-10-13T08:15:16;6.78;;;3.75;;
23242;SDS011;11790;49.578;11.214;2023-10-13T08:20:31;7.05;;;3.38;;
23242;SDS011;11790;49.578;11.214;2023-10-13T08:25:38;11.05;;;3.88;;
23242;SDS011;11790;49.578;11.214;2023-10-13T08:31:02;7.43;;;3.75;;
23242;SDS011;11790;49.578;11.214;2023-10-13T08:36:07;5.13;;;3.63;;
23242;SDS011;11790;49.578;11.214;2023-10-13T08:41:25;6.90;;;3.45;;
23242;SDS011;11790;49.578;11.214;2023-10-13T08:46:30;6.07;;;3.38;;
23242;SDS011;11790;49.578;11.214;2023-10-13T08:51:33;7.38;;;3.95;;
23242;SDS011;11790;49.578;11.214;2023-10-13T08:56:43;7.35;;;3.50;;
23242;SDS011;11790;49.578;11.214;2023-10-13T09:01:47;6.93;;;3.43;;
23242;SDS011;11790;49.578;11.214;2023-10-13T09:07:00;7.10;;;3.47;;
23242;SDS011;11790;49.578;11.214;2023-10-13T09:17:48;9.55;;;3.90;;
23242;SDS011;11790;49.578;11.214;2023-10-13T09:22:53;6.28;;;3.53;;
23242;SDS011;11790;49.578;11.214;2023-10-13T09:33:03;5.93;;;3.45;;
23242;SDS011;11790;49.578;11.214;2023-10-13T09:38:08;10.48;;;3.67;;
23242;SDS011;11790;49.578;11.214;2023-10-13T09:43:11;6.43;;;3.42;;
23242;SDS011;11790;49.578;11.214;2023-10-13T09:48:15;7.57;;;3.63;;
23242;SDS011;11790;49.578;11.214;2023-10-13T09:53:21;7.15;;;3.38;;
23242;SDS011;11790;49.578;11.214;2023-10-13T09:58:23;8.73;;;3.40;;
23242;SDS011;11790;49.578;11.214;2023-10-13T10:03:29;7.72;;;3.50;;
23242;SDS011;11790;49.578;11.214;2023-10-13T10:08:35;6.72;;;3.53;;
23242;SDS011;11790;49.578;11.214;2023-10-13T10:13:52;7.70;;;3.90;;
23242;SDS011;11790;49.578;11.214;2023-10-13T10:19:00;4.30;;;3.13;;
23242;SDS011;11790;49.578;11.214;2023-10-13T10:24:02;7.78;;;3.95;;
23242;SDS011;11790;49.578;11.214;2023-10-13T10:29:11;5.68;;;3.47;;
23242;SDS011;11790;49.578;11.214;2023-10-13T10:34:14;6.00;;;3.30;;
23242;SDS011;11790;49.578;11.214;2023-10-13T10:39:18;6.70;;;3.50;;
23242;SDS011;11790;49.578;11.214;2023-10-13T10:44:18;8.87;;;3.33;;
23242;SDS011;11790;49.578;11.214;2023-10-13T10:49:38;5.00;;;3.13;;
23242;SDS011;11790;49.578;11.214;2023-10-13T10:54:38;6.20;;;3.22;;
23242;SDS011;11790;49.578;11.214;2023-10-13T10:59:44;8.57;;;3.25;;
23242;SDS011;11790;49.578;11.214;2023-10-13T11:04:50;8.93;;;3.67;;
23242;SDS011;11790;49.578;11.214;2023-10-13T11:09:55;4.55;;;2.72;;
23242;SDS011;11790;49.578;11.214;2023-10-13T11:15:07;6.88;;;3.10;;
23242;SDS011;11790;49.578;11.214;2023-10-13T11:20:21;9.27;;;2.90;;
23242;SDS011;11790;49.578;11.214;2023-10-13T11:25:33;4.90;;;2.67;;
23242;SDS011;11790;49.578;11.214;2023-10-13T11:30:37;6.28;;;2.80;;
23242;SDS011;11790;49.578;11.214;2023-10-13T11:35:38;6.57;;;3.30;;
23242;SDS011;11790;49.578;11.214;2023-10-13T11:40:54;10.60;;;3.08;;
23242;SDS011;11790;49.578;11.214;2023-10-13T11:46:11;4.95;;;2.80;;
23242;SDS011;11790;49.578;11.214;2023-10-13T11:51:13;6.88;;;2.90;;
23242;SDS011;11790;49.578;11.214;2023-10-13T11:56:39;7.13;;;2.90;;
23242;SDS011;11790;49.578;11.214;2023-10-13T12:01:39;4.63;;;2.70;;
23242;SDS011;11790;49.578;11.214;2023-10-13T12:06:58;6.65;;;3.25;;
23242;SDS011;11790;49.578;11.214;2023-10-13T12:12:11;7.88;;;3.10;;
23242;SDS011;11790;49.578;11.214;2023-10-13T12:17:12;7.97;;;3.00;;
23242;SDS011;11790;49.578;11.214;2023-10-13T12:22:17;6.28;;;2.88;;
23242;SDS011;11790;49.578;11.214;2023-10-13T12:27:25;5.43;;;2.78;;
23242;SDS011;11790;49.578;11.214;2023-10-13T12:32:35;4.38;;;2.55;;
23242;SDS011;11790;49.578;11.214;2023-10-13T12:37:35;7.22;;;2.63;;
23242;SDS011;11790;49.578;11.214;2023-10-13T12:42:36;5.13;;;2.83;;
23242;SDS011;11790;49.578;11.214;2023-10-13T12:47:54;7.57;;;3.20;;
23242;SDS011;11790;49.578;11.214;2023-10-13T12:53:13;4.45;;;2.42;;
23242;SDS011;11790;49.578;11.214;2023-10-13T12:58:14;13.88;;;2.70;;
23242;SDS011;11790;49.578;11.214;2023-10-13T13:03:14;5.20;;;2.75;;
23242;SDS011;11790;49.578;11.214;2023-10-13T13:08:14;5.72;;;2.83;;
23242;SDS011;11790;49.578;11.214;2023-10-13T13:13:22;5.20;;;3.20;;
23242;SDS011;11790;49.578;11.214;2023-10-13T13:18:24;6.10;;;2.85;;
23242;SDS011;11790;49.578;11.214;2023-10-13T13:23:24;7.10;;;2.97;;
23242;SDS011;11790;49.578;11.214;2023-10-13T13:28:26;10.15;;;3.00;;
23242;SDS011;11790;49.578;11.214;2023-10-13T13:33:28;6.95;;;2.95;;
23242;SDS011;11790;49.578;11.214;2023-10-13T13:38:33;6.22;;;2.50;;
23242;SDS011;11790;49.578;11.214;2023-10-13T13:43:33;5.80;;;2.50;;
23242;SDS011;11790;49.578;11.214;2023-10-13T13:48:51;5.40;;;2.50;;
23242;SDS011;11790;49.578;11.214;2023-10-13T13:53:58;8.55;;;2.78;;
23242;SDS011;11790;49.578;11.214;2023-10-13T13:58:58;4.28;;;2.47;;
23242;SDS011;11790;49.578;11.214;2023-10-13T14:04:07;8.70;;;3.10;;
23242;SDS011;11790;49.578;11.214;2023-10-13T14:09:07;6.97;;;2.70;;
23242;SDS011;11790;49.578;11.214;2023-10-13T14:14:32;5.75;;;2.38;;
23242;SDS011;11790;49.578;11.214;2023-10-13T14:19:34;7.22;;;2.35;;
23242;SDS011;11790;49.578;11.214;2023-10-13T14:24:34;4.22;;;2.50;;
23242;SDS011;11790;49.578;11.214;2023-10-13T14:29:35;6.85;;;2.40;;
23242;SDS011;11790;49.578;11.214;2023-10-13T14:34:40;6.68;;;2.17;;
23242;SDS011;11790;49.578;11.214;2023-10-13T14:39:41;3.47;;;2.08;;
23242;SDS011;11790;49.578;11.214;2023-10-13T14:44:41;7.03;;;2.33;;
23242;SDS011;11790;49.578;11.214;2023-10-13T14:49:41;6.35;;;2.15;;
23242;SDS011;11790;49.578;11.214;2023-10-13T14:54:41;4.88;;;2.60;;
23242;SDS011;11790;49.578;11.214;2023-10-13T14:59:42;4.72;;;1.92;;
23242;SDS011;11790;49.578;11.214;2023-10-13T15:04:42;4.03;;;2.35;;
23242;SDS011;11790;49.578;11.214;2023-10-13T15:09:42;6.43;;;2.77;;
23242;SDS011;11790;49.578;11.214;2023-10-13T15:14:43;6.32;;;2.85;;
23242;SDS011;11790;49.578;11.214;2023-10-13T15:19:43;6.85;;;2.10;;
23242;SDS011;11790;49.578;11.214;2023-10-13T15:24:45;5.28;;;2.50;;
23242;SDS011;11790;49.578;11.214;2023-10-13T15:29:46;8.27;;;2.33;;
23242;SDS011;11790;49.578;11.214;2023-10-13T15:34:50;6.68;;;3.33;;
23242;SDS011;11790;49.578;11.214;2023-10-13T15:39:51;6.88;;;3.00;;
23242;SDS011;11790;49.578;11.214;2023-10-13T15:44:52;6.60;;;2.45;;
23242;SDS011;11790;49.578;11.214;2023-10-13T15:49:53;8.73;;;2.45;;
23242;SDS011;11790;49.578;11.214;2023-10-13T15:54:53;10.07;;;2.33;;
23242;SDS011;11790;49.578;11.214;2023-10-13T15:59:56;7.10;;;2.45;;
23242;SDS011;11790;49.578;11.214;2023-10-13T16:04:57;10.15;;;3.70;;
23242;SDS011;11790;49.578;11.214;2023-10-13T16:09:59;6.30;;;2.67;;
23242;SDS011;11790;49.578;11.214;2023-10-13T16:14:59;6.82;;;2.70;;
23242;SDS011;11790;49.578;11.214;2023-10-13T16:20:00;6.00;;;2.83;;
23242;SDS011;11790;49.578;11.214;2023-10-13T16:25:00;11.93;;;3.90;;
23242;SDS011;11790;49.578;11.214;2023-10-13T16:30:01;6.78;;;3.42;;
23242;SDS011;11790;49.578;11.214;2023-10-13T16:35:04;9.18;;;3.65;;
23242;SDS011;11790;49.578;11.214;2023-10-13T16:40:06;12.07;;;4.15;;
23242;SDS011;11790;49.578;11.214;2023-10-13T16:45:07;11.48;;;3.40;;
23242;SDS011;11790;49.578;11.214;2023-10-13T16:50:25;6.60;;;3.35;;
23242;SDS011;11790;49.578;11.214;2023-10-13T16:55:26;9.48;;;3.72;;
23242;SDS011;11790;49.578;11.214;2023-10-13T17:00:29;14.07;;;4.40;;
23242;SDS011;11790;49.578;11.214;2023-10-13T17:05:29;15.73;;;4.67;;
23242;SDS011;11790;49.578;11.214;2023-10-13T17:10:30;7.20;;;3.72;;
23242;SDS011;11790;49.578;11.214;2023-10-13T17:15:32;8.55;;;3.60;;
23242;SDS011;11790;49.578;11.214;2023-10-13T17:20:33;17.92;;;4.10;;
23242;SDS011;11790;49.578;11.214;2023-10-13T17:25:34;11.80;;;4.53;;
23242;SDS011;11790;49.578;11.214;2023-10-13T17:30:34;8.82;;;3.58;;
23242;SDS011;11790;49.578;11.214;2023-10-13T17:35:35;10.05;;;3.92;;
23242;SDS011;11790;49.578;11.214;2023-10-13T17:40:36;6.63;;;4.25;;
23242;SDS011;11790;49.578;11.214;2023-10-13T17:45:38;8.82;;;3.78;;
23242;SDS011;11790;49.578;11.214;2023-10-13T17:50:38;9.15;;;4.68;;
23242;SDS011;11790;49.578;11.214;2023-10-13T17:55:38;11.03;;;4.87;;
23242;SDS011;11790;49.578;11.214;2023-10-13T18:00:39;9.30;;;3.28;;
23242;SDS011;11790;49.578;11.214;2023-10-13T18:05:39;6.37;;;3.37;;
23242;SDS011;11790;49.578;11.214;2023-10-13T18:10:39;8.35;;;3.30;;
23242;SDS011;11790;49.578;11.214;2023-10-13T18:15:43;10.20;;;3.17;;
23242;SDS011;11790;49.578;11.214;2023-10-13T18:20:44;6.13;;;2.90;;
23242;SDS011;11790;49.578;11.214;2023-10-13T18:25:47;11.57;;;3.47;;
23242;SDS011;11790;49.578;11.214;2023-10-13T18:30:57;8.23;;;3.30;;
23242;SDS011;11790;49.578;11.214;2023-10-13T18:36:10;10.68;;;3.35;;
23242;SDS011;11790;49.578;11.214;2023-10-13T18:41:11;9.23;;;3.28;;
23242;SDS011;11790;49.578;11.214;2023-10-13T18:46:14;10.27;;;3.75;;
23242;SDS011;11790;49.578;11.214;2023-10-13T18:51:15;9.73;;;3.58;;
23242;SDS011;11790;49.578;11.214;2023-10-13T18:56:17;8.40;;;3.42;;
23242;SDS011;11790;49.578;11.214;2023-10-13T19:01:23;7.88;;;2.85;;
23242;SDS011;11790;49.578;11.214;2023-10-13T19:06:28;6.57;;;3.20;;
23242;SDS011;11790;49.578;11.214;2023-10-13T19:11:30;10.23;;;3.35;;
23242;SDS011;11790;49.578;11.214;2023-10-13T19:16:34;10.10;;;2.97;;
23242;SDS011;11790;49.578;11.214;2023-10-13T19:21:35;8.38;;;3.33;;
23242;SDS011;11790;49.578;11.214;2023-10-13T19:26:39;7.25;;;3.10;;
23242;SDS011;11790;49.578;11.214;2023-10-13T19:31:40;6.40;;;2.90;;
23242;SDS011;11790;49.578;11.214;2023-10-13T19:36:40;7.63;;;3.10;;
23242;SDS011;11790;49.578;11.214;2023-10-13T19:41:43;8.48;;;3.00;;
23242;SDS011;11790;49.578;11.214;2023-10-13T19:46:43;7.78;;;3.15;;
23242;SDS011;11790;49.578;11.214;2023-10-13T19:51:47;12.40;;;3.47;;
23242;SDS011;11790;49.578;11.214;2023-10-13T19:56:47;8.10;;;2.75;;
23242;SDS011;11790;49.578;11.214;2023-10-13T20:01:48;6.38;;;2.90;;
23242;SDS011;11790;49.578;11.214;2023-10-13T20:06:49;6.72;;;3.10;;
23242;SDS011;11790;49.578;11.214;2023-10-13T20:11:55;7.65;;;2.88;;
23242;SDS011;11790;49.578;11.214;2023-10-13T20:16:57;6.43;;;3.08;;
23242;SDS011;11790;49.578;11.214;2023-10-13T20:21:57;9.55;;;3.10;;
23242;SDS011;11790;49.578;11.214;2023-10-13T20:27:02;12.30;;;3.92;;
23242;SDS011;11790;49.578;11.214;2023-10-13T20:32:02;11.80;;;2.90;;
23242;SDS011;11790;49.578;11.214;2023-10-13T20:37:02;6.77;;;3.10;;
23242;SDS011;11790;49.578;11.214;2023-10-13T20:42:03;4.53;;;2.80;;
23242;SDS011;11790;49.578;11.214;2023-10-13T20:47:07;7.95;;;3.33;;
23242;SDS011;11790;49.578;11.214;2023-10-13T20:52:10;9.57;;;3.22;;
23242;SDS011;11790;49.578;11.214;2023-10-13T20:57:11;6.13;;;3.10;;
23242;SDS011;11790;49.578;11.214;2023-10-13T21:02:12;7.25;;;3.47;;
23242;SDS011;11790;49.578;11.214;2023-10-13T21:07:14;8.77;;;3.05;;
23242;SDS011;11790;49.578;11.214;2023-10-13T21:12:18;9.27;;;3.40;;
23242;SDS011;11790;49.578;11.214;2023-10-13T21:17:18;6.30;;;3.13;;
23242;SDS011;11790;49.578;11.214;2023-10-13T21:22:21;6.53;;;3.45;;
23242;SDS011;11790;49.578;11.214;2023-10-13T21:27:21;8.80;;;3.93;;
23242;SDS011;11790;49.578;11.214;2023-10-13T21:32:24;7.18;;;3.42;;
23242;SDS011;11790;49.578;11.214;2023-10-13T21:37:25;10.18;;;3.60;;
23242;SDS011;11790;49.578;11.214;2023-10-13T21:42:25;9.30;;;3.10;;
23242;SDS011;11790;49.578;11.214;2023-10-13T21:47:25;5.88;;;3.08;;
23242;SDS011;11790;49.578;11.214;2023-10-13T21:52:25;7.53;;;3.97;;
23242;SDS011;11790;49.578;11.214;2023-10-13T21:57:25;5.88;;;2.95;;
23242;SDS011;11790;49.578;11.214;2023-10-13T22:02:26;8.98;;;3.00;;
23242;SDS011;11790;49.578;11.214;2023-10-13T22:07:26;6.40;;;3.30;;
23242;SDS011;11790;49.578;11.214;2023-10-13T22:12:26;8.05;;;3.00;;
23242;SDS011;11790;49.578;11.214;2023-10-13T22:17:28;9.82;;;2.97;;
23242;SDS011;11790;49.578;11.214;2023-10-13T22:22:28;7.63;;;3.13;;
23242;SDS011;11790;49.578;11.214;2023-10-13T22:27:29;5.88;;;2.95;;
23242;SDS011;11790;49.578;11.214;2023-10-13T22:32:29;7.10;;;3.28;;
23242;SDS011;11790;49.578;11.214;2023-10-13T22:37:29;6.93;;;2.85;;
23242;SDS011;11790;49.578;11.214;2023-10-13T22:42:29;7.97;;;3.42;;
23242;SDS011;11790;49.578;11.214;2023-10-13T22:47:30;7.07;;;3.30;;
23242;SDS011;11790;49.578;11.214;2023-10-13T22:52:30;9.65;;;3.28;;
23242;SDS011;11790;49.578;11.214;2023-10-13T22:57:30;5.65;;;2.92;;
23242;SDS011;11790;49.578;11.214;2023-10-13T23:02:31;8.05;;;3.10;;
23242;SDS011;11790;49.578;11.214;2023-10-13T23:07:31;5.53;;;2.92;;
23242;SDS011;11790;49.578;11.214;2023-10-13T23:12:33;8.45;;;3.08;;
23242;SDS011;11790;49.578;11.214;2023-10-13T23:17:33;8.20;;;3.40;;
23242;SDS011;11790;49.578;11.214;2023-10-13T23:22:33;5.75;;;3.00;;
23242;SDS011;11790;49.578;11.214;2023-10-13T23:27:34;8.80;;;3.30;;
23242;SDS011;11790;49.578;11.214;2023-10-13T23:32:36;4.95;;;2.95;;
23242;SDS011;11790;49.578;11.214;2023-10-13T23:37:36;5.93;;;2.97;;
23242;SDS011;11790;49.578;11.214;2023-10-13T23:42:42;5.05;;;2.72;;
23242;SDS011;11790;49.578;11.214;2023-10-13T23:47:54;9.45;;;3.53;;
23242;SDS011;11790;49.578;11.214;2023-10-13T23:52:58;9.55;;;3.40;;
23242;SDS011;11790;49.578;11.214;2023-10-13T23:57:59;6.35;;;3.00;;
